createdAt,value
2019-01-23T00:00:54.125Z,0.00
2019-01-23T00:01:54.115Z,0.00
2019-01-23T00:02:54.054Z,0.00
2019-01-23T00:03:54.122Z,0.00
2019-01-23T00:04:54.006Z,0.00
2019-01-23T00:05:54.032Z,0.00
2019-01-23T00:06:53.928Z,0.00
2019-01-23T00:07:53.944Z,0.00
2019-01-23T00:08:53.879Z,0.00
2019-01-23T00:09:53.870Z,0.00
2019-01-23T00:10:53.799Z,0.00
2019-01-23T00:11:53.864Z,0.00
2019-01-23T00:12:53.723Z,0.00
2019-01-23T00:13:53.773Z,0.00
2019-01-23T00:14:53.665Z,0.00
2019-01-23T00:15:53.686Z,0.00
2019-01-23T00:16:53.594Z,0.00
2019-01-23T00:17:53.594Z,0.00
2019-01-23T00:18:53.522Z,0.00
2019-01-23T00:19:53.494Z,0.00
2019-01-23T00:20:53.463Z,0.00
2019-01-23T00:21:53.512Z,0.00
2019-01-23T00:22:53.393Z,0.00
2019-01-23T00:23:53.421Z,0.00
2019-01-23T00:24:53.335Z,0.00
2019-01-23T00:25:53.292Z,0.00
2019-01-23T00:26:53.345Z,0.00
2019-01-23T00:27:53.227Z,0.00
2019-01-23T00:28:53.252Z,0.00
2019-01-23T00:29:53.164Z,0.00
2019-01-23T00:30:53.132Z,0.00
2019-01-23T00:31:53.094Z,0.00
2019-01-23T00:32:53.208Z,0.00
2019-01-23T00:33:53.031Z,0.00
2019-01-23T00:34:53.083Z,0.00
2019-01-23T00:35:52.974Z,0.00
2019-01-23T00:36:52.921Z,0.00
2019-01-23T00:37:53.002Z,0.00
2019-01-23T00:38:52.863Z,0.00
2019-01-23T00:39:52.911Z,0.00
2019-01-23T00:40:52.792Z,0.00
2019-01-23T00:41:52.761Z,0.00
2019-01-23T00:42:52.723Z,0.00
2019-01-23T00:43:52.732Z,0.00
2019-01-23T00:44:52.663Z,0.00
2019-01-23T00:45:52.645Z,0.00
2019-01-23T00:46:52.597Z,0.00
2019-01-23T00:47:52.572Z,0.00
2019-01-23T00:48:52.562Z,0.00
2019-01-23T00:49:52.493Z,0.00
2019-01-23T00:50:52.574Z,0.00
2019-01-23T00:51:52.431Z,0.00
2019-01-23T00:52:52.482Z,0.00
2019-01-23T00:53:52.370Z,0.00
2019-01-23T00:54:52.393Z,0.00
2019-01-23T00:55:52.302Z,0.00
2019-01-23T00:56:52.305Z,0.00
2019-01-23T00:57:52.230Z,0.00
2019-01-23T00:58:52.203Z,0.00
2019-01-23T00:59:52.233Z,0.00
2019-01-23T01:00:52.132Z,0.00
2019-01-23T01:01:52.133Z,0.00
2019-01-23T01:02:52.065Z,0.00
2019-01-23T01:03:52.176Z,0.00
2019-01-23T01:04:51.991Z,0.00
2019-01-23T01:05:52.051Z,0.00
2019-01-23T01:06:51.932Z,0.00
2019-01-23T01:07:51.963Z,0.00
2019-01-23T01:08:51.861Z,0.00
2019-01-23T01:09:51.831Z,0.00
2019-01-23T01:10:51.790Z,0.00
2019-01-23T01:11:52.802Z,0.00
2019-01-23T01:12:51.731Z,0.00
2019-01-23T01:13:51.794Z,0.00
2019-01-23T01:14:51.671Z,0.00
2019-01-23T01:15:51.646Z,0.00
2019-01-23T01:16:51.610Z,0.00
2019-01-23T01:17:51.561Z,0.00
2019-01-23T01:18:51.623Z,0.00
2019-01-23T01:19:51.503Z,0.00
2019-01-23T01:20:51.461Z,0.00
2019-01-23T01:21:51.432Z,0.00
2019-01-23T01:22:51.442Z,0.00
2019-01-23T01:23:51.361Z,0.00
2019-01-23T01:24:51.351Z,0.00
2019-01-23T01:25:51.312Z,0.00
2019-01-23T01:26:51.260Z,0.00
2019-01-23T01:27:51.232Z,0.00
2019-01-23T01:28:55.943Z,0.00
2019-01-23T01:29:51.161Z,0.00
2019-01-23T01:30:51.182Z,0.00
2019-01-23T01:31:51.103Z,0.00
2019-01-23T01:32:51.091Z,0.00
2019-01-23T01:33:51.032Z,0.00
2019-01-23T01:34:51.112Z,0.00
2019-01-23T01:35:50.966Z,0.00
2019-01-23T01:36:51.025Z,0.00
2019-01-23T01:37:50.931Z,0.00
2019-01-23T01:38:50.872Z,0.00
2019-01-23T01:39:50.932Z,0.00
2019-01-23T01:40:50.800Z,0.00
2019-01-23T01:41:50.841Z,0.00
2019-01-23T01:42:50.730Z,0.00
2019-01-23T01:43:50.750Z,0.00
2019-01-23T01:44:50.665Z,0.00
2019-01-23T01:45:50.662Z,0.00
2019-01-23T01:46:50.613Z,0.00
2019-01-23T01:47:50.582Z,0.00
2019-01-23T01:48:50.531Z,0.00
2019-01-23T01:49:50.590Z,0.00
2019-01-23T01:50:50.463Z,0.00
2019-01-23T01:51:50.515Z,0.00
2019-01-23T01:52:50.399Z,0.00
2019-01-23T01:53:50.412Z,0.00
2019-01-23T01:54:50.335Z,0.00
2019-01-23T01:55:50.321Z,0.00
2019-01-23T01:56:50.265Z,0.00
2019-01-23T01:57:50.333Z,0.00
2019-01-23T01:58:50.199Z,0.00
2019-01-23T01:59:50.173Z,0.00
2019-01-23T02:00:50.132Z,0.00
2019-01-23T02:01:50.149Z,0.00
2019-01-23T02:02:50.062Z,0.00
2019-01-23T02:03:50.060Z,0.00
2019-01-23T02:04:50.001Z,0.00
2019-01-23T02:05:49.959Z,0.00
2019-01-23T02:06:49.981Z,0.00
2019-01-23T02:07:49.901Z,0.00
2019-01-23T02:08:49.902Z,0.00
2019-01-23T02:09:49.830Z,0.00
2019-01-23T02:10:49.791Z,0.00
2019-01-23T02:11:49.771Z,0.00
2019-01-23T02:12:49.812Z,0.00
2019-01-23T02:13:49.700Z,0.00
2019-01-23T02:14:49.721Z,0.00
2019-01-23T02:15:49.629Z,0.00
2019-01-23T02:16:49.602Z,0.00
2019-01-23T02:17:49.643Z,0.00
2019-01-23T02:18:49.532Z,0.00
2019-01-23T02:19:49.551Z,0.00
2019-01-23T02:20:49.461Z,0.00
2019-01-23T02:21:49.430Z,0.00
2019-01-23T02:22:49.410Z,0.00
2019-01-23T02:23:49.471Z,0.00
2019-01-23T02:24:49.334Z,0.00
2019-01-23T02:25:49.380Z,0.00
2019-01-23T02:26:49.260Z,0.00
2019-01-23T02:27:49.233Z,0.00
2019-01-23T02:28:49.189Z,0.00
2019-01-23T02:29:49.203Z,0.00
2019-01-23T02:30:49.135Z,0.00
2019-01-23T02:31:49.112Z,0.00
2019-01-23T02:32:49.061Z,0.00
2019-01-23T02:33:49.120Z,0.00
2019-01-23T02:34:49.002Z,0.00
2019-01-23T02:35:49.030Z,0.00
2019-01-23T02:36:48.946Z,0.00
2019-01-23T02:37:48.942Z,0.00
2019-01-23T02:38:48.952Z,0.00
2019-01-23T02:39:56.132Z,0.00
2019-01-23T02:41:53.697Z,0.00
2019-01-23T02:42:53.569Z,0.00
2019-01-23T02:44:57.592Z,0.00
2019-01-23T02:45:57.479Z,0.00
2019-01-23T02:48:01.501Z,0.00
2019-01-23T02:49:01.396Z,0.00
2019-01-23T02:50:55.172Z,0.00
2019-01-23T02:51:55.069Z,0.00
2019-01-23T02:53:59.081Z,0.00
2019-01-23T02:54:58.971Z,0.00
2019-01-23T02:57:03.924Z,0.00
2019-01-23T02:58:03.813Z,0.00
2019-01-23T03:00:08.749Z,0.00
2019-01-23T03:01:08.721Z,0.00
2019-01-23T03:03:12.651Z,0.00
2019-01-23T03:04:12.552Z,0.00
2019-01-23T03:06:16.572Z,0.00
2019-01-23T03:07:16.455Z,0.00
2019-01-23T03:09:20.482Z,0.00
2019-01-23T03:10:20.442Z,0.00
2019-01-23T03:12:24.380Z,0.00
2019-01-23T03:13:24.282Z,0.00
2019-01-23T03:15:29.141Z,0.00
2019-01-23T03:16:29.182Z,0.00
2019-01-23T03:18:34.042Z,0.00
2019-01-23T03:19:33.941Z,0.00
2019-01-23T03:21:26.902Z,0.00
2019-01-23T03:22:26.790Z,0.00
2019-01-23T03:24:30.812Z,0.00
2019-01-23T03:25:30.716Z,0.00
2019-01-23T03:27:34.724Z,0.00
2019-01-23T03:28:34.612Z,0.00
2019-01-23T03:30:38.634Z,0.00
2019-01-23T03:31:38.551Z,0.00
2019-01-23T03:33:42.541Z,0.00
2019-01-23T03:34:42.444Z,0.00
2019-01-23T03:36:46.450Z,0.00
2019-01-23T03:37:46.357Z,0.00
2019-01-23T03:39:50.300Z,0.00
2019-01-23T03:40:50.255Z,0.00
2019-01-23T03:42:54.270Z,0.00
2019-01-23T03:43:54.163Z,0.00
2019-01-23T03:45:58.124Z,0.00
2019-01-23T03:46:58.147Z,0.00
2019-01-23T03:49:02.091Z,0.00
2019-01-23T03:50:01.985Z,0.00
2019-01-23T03:52:06.026Z,0.00
2019-01-23T03:53:05.893Z,0.00
2019-01-23T03:55:09.910Z,0.00
2019-01-23T03:56:09.809Z,0.00
2019-01-23T03:58:13.832Z,0.00
2019-01-23T03:59:13.728Z,0.00
2019-01-23T04:01:06.685Z,0.00
2019-01-23T04:02:06.562Z,0.00
2019-01-23T04:04:10.531Z,0.00
2019-01-23T04:05:10.474Z,0.00
2019-01-23T04:07:14.493Z,0.00
2019-01-23T04:08:14.462Z,0.00
2019-01-23T04:10:18.402Z,0.00
2019-01-23T04:11:18.291Z,0.00
2019-01-23T04:13:22.262Z,0.00
2019-01-23T04:14:22.212Z,0.00
2019-01-23T04:16:26.221Z,0.00
2019-01-23T04:17:26.122Z,0.00
2019-01-23T04:19:30.130Z,0.00
2019-01-23T04:20:30.022Z,0.00
2019-01-23T04:22:34.055Z,0.00
2019-01-23T04:23:33.940Z,0.00
2019-01-23T04:25:37.963Z,0.00
2019-01-23T04:26:37.842Z,0.00
2019-01-23T04:28:41.873Z,0.00
2019-01-23T04:29:41.760Z,0.00
2019-01-23T04:31:34.715Z,0.00
2019-01-23T04:32:34.601Z,0.00
2019-01-23T04:34:38.622Z,0.00
2019-01-23T04:35:38.512Z,0.00
2019-01-23T04:37:42.835Z,0.00
2019-01-23T04:38:42.421Z,0.00
2019-01-23T04:40:46.444Z,0.00
2019-01-23T04:41:46.343Z,0.00
2019-01-23T04:43:50.352Z,0.00
2019-01-23T04:44:50.268Z,0.00
2019-01-23T04:46:54.205Z,0.00
2019-01-23T04:47:54.162Z,0.00
2019-01-23T04:49:58.172Z,0.00
2019-01-23T04:50:58.073Z,0.00
2019-01-23T04:53:02.081Z,0.00
2019-01-23T04:54:01.970Z,0.00
2019-01-23T04:56:05.991Z,0.00
2019-01-23T04:57:05.893Z,0.00
2019-01-23T04:59:09.915Z,0.00
2019-01-23T05:00:09.803Z,0.00
2019-01-23T05:02:13.814Z,0.00
2019-01-23T05:03:13.700Z,0.00
2019-01-23T05:05:17.722Z,0.00
2019-01-23T05:06:17.622Z,0.00
2019-01-23T05:08:21.635Z,0.00
2019-01-23T05:09:21.605Z,0.00
2019-01-23T05:11:15.301Z,0.00
2019-01-23T05:12:15.195Z,0.00
2019-01-23T05:14:20.043Z,0.00
2019-01-23T05:15:19.923Z,0.00
2019-01-23T05:17:23.965Z,0.00
2019-01-23T05:18:23.842Z,0.00
2019-01-23T05:20:27.785Z,0.00
2019-01-23T05:21:27.752Z,0.00
2019-01-23T05:23:32.692Z,0.00
2019-01-23T05:24:32.581Z,0.00
2019-01-23T05:26:36.594Z,0.00
2019-01-23T05:27:36.503Z,0.00
2019-01-23T05:29:41.365Z,0.00
2019-01-23T05:30:41.392Z,0.00
2019-01-23T05:32:45.333Z,0.00
2019-01-23T05:33:45.233Z,0.00
2019-01-23T05:35:49.258Z,0.00
2019-01-23T05:36:49.131Z,0.00
2019-01-23T05:38:53.972Z,0.00
2019-01-23T05:39:53.873Z,0.00
2019-01-23T05:41:57.882Z,0.00
2019-01-23T05:42:57.786Z,0.00
2019-01-23T05:45:01.822Z,0.00
2019-01-23T05:46:01.719Z,0.00
2019-01-23T05:48:05.703Z,0.00
2019-01-23T05:49:05.592Z,0.00
2019-01-23T05:50:58.564Z,0.00
2019-01-23T05:51:58.456Z,0.00
2019-01-23T05:54:02.404Z,0.00
2019-01-23T05:55:02.363Z,0.00
2019-01-23T05:57:06.371Z,0.00
2019-01-23T05:58:06.276Z,0.00
2019-01-23T06:00:10.281Z,0.00
2019-01-23T06:01:10.189Z,0.00
2019-01-23T06:03:14.191Z,0.00
2019-01-23T06:04:14.095Z,0.00
2019-01-23T06:06:18.102Z,0.00
2019-01-23T06:07:18.001Z,0.00
2019-01-23T06:09:22.875Z,0.00
2019-01-23T06:10:21.910Z,0.00
2019-01-23T06:12:25.933Z,0.00
2019-01-23T06:13:25.833Z,0.00
2019-01-23T06:15:29.842Z,0.00
2019-01-23T06:16:29.802Z,0.00
2019-01-23T06:18:33.743Z,0.00
2019-01-23T06:19:33.647Z,0.00
2019-01-23T06:21:26.593Z,0.00
2019-01-23T06:22:26.494Z,0.00
2019-01-23T06:24:30.503Z,0.00
2019-01-23T06:25:30.404Z,0.00
2019-01-23T06:27:34.361Z,0.00
2019-01-23T06:28:34.382Z,0.00
2019-01-23T06:30:38.325Z,0.00
2019-01-23T06:31:38.224Z,0.00
2019-01-23T06:33:42.241Z,0.00
2019-01-23T06:34:42.133Z,0.00
2019-01-23T06:36:46.143Z,0.00
2019-01-23T06:37:46.043Z,0.00
2019-01-23T06:39:50.052Z,0.00
2019-01-23T06:40:49.956Z,0.00
2019-01-23T06:42:53.962Z,0.00
2019-01-23T06:43:53.862Z,0.00
2019-01-23T06:45:57.871Z,0.00
2019-01-23T06:46:57.773Z,0.00
2019-01-23T06:49:01.725Z,0.00
2019-01-23T06:50:01.683Z,0.00
2019-01-23T06:52:05.704Z,0.00
2019-01-23T06:53:05.613Z,0.00
2019-01-23T06:55:09.613Z,0.00
2019-01-23T06:56:09.526Z,0.00
2019-01-23T06:58:13.564Z,0.00
2019-01-23T06:59:13.456Z,0.00
2019-01-23T07:01:07.453Z,0.00
2019-01-23T07:02:06.301Z,0.00
2019-01-23T07:04:10.443Z,0.00
2019-01-23T07:05:10.313Z,0.00
2019-01-23T07:07:14.453Z,0.00
2019-01-23T07:08:14.333Z,0.00
2019-01-23T07:10:18.402Z,0.00
2019-01-23T07:11:18.343Z,0.00
2019-01-23T07:13:22.472Z,0.00
2019-01-23T07:14:22.374Z,0.00
2019-01-23T07:16:26.598Z,0.00
2019-01-23T07:17:26.384Z,0.00
2019-01-23T07:19:30.603Z,0.00
2019-01-23T07:20:30.385Z,0.00
2019-01-23T07:22:34.441Z,0.00
2019-01-23T07:23:34.482Z,0.00
2019-01-23T07:25:38.631Z,0.00
2019-01-23T07:26:38.411Z,0.00
2019-01-23T07:28:49.014Z,5.63
2019-01-23T07:29:42.433Z,5.63
2019-01-23T07:31:35.603Z,5.63
2019-01-23T07:32:35.384Z,5.63
2019-01-23T07:34:39.612Z,5.63
2019-01-23T07:35:39.404Z,5.63
2019-01-23T07:37:43.644Z,5.63
2019-01-23T07:38:43.424Z,11.25
2019-01-23T07:40:47.645Z,11.25
2019-01-23T07:41:47.434Z,11.25
2019-01-23T07:43:51.661Z,11.25
2019-01-23T07:44:51.445Z,11.25
2019-01-23T07:46:55.672Z,16.88
2019-01-23T07:47:55.453Z,16.88
2019-01-23T07:49:59.513Z,16.88
2019-01-23T07:50:59.662Z,16.88
2019-01-23T07:53:03.723Z,16.88
2019-01-23T07:54:03.491Z,22.50
2019-01-23T07:56:07.721Z,22.50
2019-01-23T07:57:07.516Z,22.50
2019-01-23T07:59:11.632Z,22.50
2019-01-23T08:00:11.444Z,22.50
2019-01-23T08:02:15.746Z,28.13
2019-01-23T08:03:15.435Z,28.13
2019-01-23T08:05:19.812Z,28.13
2019-01-23T08:06:19.445Z,28.13
2019-01-23T08:08:23.672Z,28.13
2019-01-23T08:09:23.473Z,28.13
2019-01-23T08:11:16.636Z,28.13
2019-01-23T08:12:16.412Z,28.13
2019-01-23T08:14:20.471Z,28.13
2019-01-23T08:15:20.617Z,33.75
2019-01-23T08:17:25.195Z,33.75
2019-01-23T08:18:24.961Z,33.75
2019-01-23T08:20:29.203Z,33.75
2019-01-23T08:21:28.971Z,39.38
2019-01-23T08:23:33.053Z,39.38
2019-01-23T08:24:33.176Z,39.38
2019-01-23T08:26:37.223Z,45.00
2019-01-23T08:27:37.003Z,45.00
2019-01-23T08:29:41.153Z,50.63
2019-01-23T08:30:41.042Z,50.63
2019-01-23T08:32:45.162Z,56.25
2019-01-23T08:33:45.031Z,56.25
2019-01-23T08:35:49.151Z,61.88
2019-01-23T08:36:49.053Z,61.88
2019-01-23T08:38:53.173Z,61.88
2019-01-23T08:39:53.062Z,61.88
2019-01-23T08:41:46.449Z,61.88
2019-01-23T08:42:46.254Z,61.88
2019-01-23T08:44:50.475Z,61.88
2019-01-23T08:45:51.368Z,61.88
2019-01-23T08:47:54.496Z,61.88
2019-01-23T08:48:54.272Z,61.88
2019-01-23T08:50:47.445Z,67.50
2019-01-23T08:51:47.415Z,67.50
2019-01-23T08:53:53.204Z,67.50
2019-01-23T08:54:52.984Z,73.13
2019-01-23T08:56:57.041Z,78.75
2019-01-23T08:57:57.004Z,78.75
2019-01-23T09:00:01.222Z,90.00
2019-01-23T09:01:01.015Z,95.63
2019-01-23T09:02:01.105Z,101.25
2019-01-23T09:03:00.953Z,101.25
2019-01-23T09:04:01.113Z,101.25
2019-01-23T09:05:00.886Z,101.25
2019-01-23T09:06:00.923Z,106.88
2019-01-23T09:07:00.822Z,112.50
2019-01-23T09:08:00.776Z,112.50
2019-01-23T09:09:00.743Z,118.13
2019-01-23T09:10:00.743Z,135.00
2019-01-23T09:11:00.695Z,140.63
2019-01-23T09:12:00.769Z,157.50
2019-01-23T09:13:00.637Z,163.13
2019-01-23T09:14:00.671Z,163.13
2019-01-23T09:15:00.570Z,185.63
2019-01-23T09:16:00.600Z,208.13
2019-01-23T09:17:00.483Z,219.38
2019-01-23T09:18:00.493Z,225.00
2019-01-23T09:19:00.503Z,219.38
2019-01-23T09:20:00.403Z,213.75
2019-01-23T09:21:00.415Z,219.38
2019-01-23T09:22:00.325Z,230.63
2019-01-23T09:23:00.422Z,247.50
2019-01-23T09:24:00.283Z,270.00
2019-01-23T09:25:00.333Z,292.50
2019-01-23T09:26:00.195Z,292.50
2019-01-23T09:27:00.256Z,281.25
2019-01-23T09:28:00.132Z,270.00
2019-01-23T09:29:00.160Z,270.00
2019-01-23T09:30:00.098Z,270.00
2019-01-23T09:31:00.174Z,281.25
2019-01-23T09:32:00.004Z,410.63
2019-01-23T09:33:00.082Z,298.13
2019-01-23T09:33:59.944Z,281.25
2019-01-23T09:34:59.912Z,270.00
2019-01-23T09:35:59.883Z,281.25
2019-01-23T09:36:59.912Z,292.50
2019-01-23T09:37:59.821Z,410.63
2019-01-23T09:38:59.922Z,331.88
2019-01-23T09:39:59.762Z,388.13
2019-01-23T09:40:59.723Z,309.38
2019-01-23T09:41:59.743Z,264.38
2019-01-23T09:42:59.667Z,258.75
2019-01-23T09:43:59.765Z,258.75
2019-01-23T09:44:59.628Z,286.88
2019-01-23T09:45:59.672Z,281.25
2019-01-23T09:46:59.551Z,275.63
2019-01-23T09:47:59.582Z,348.75
2019-01-23T09:48:59.484Z,534.38
2019-01-23T09:49:59.592Z,461.25
2019-01-23T09:50:59.412Z,343.13
2019-01-23T09:51:59.391Z,348.75
2019-01-23T09:52:59.362Z,315.00
2019-01-23T09:53:59.412Z,270.00
2019-01-23T09:54:59.306Z,247.50
2019-01-23T09:55:59.335Z,230.63
2019-01-23T09:56:59.232Z,208.13
2019-01-23T09:57:59.202Z,196.88
2019-01-23T09:59:02.599Z,208.13
2019-01-23T09:59:59.142Z,202.50
2019-01-23T10:00:59.818Z,191.25
2019-01-23T10:01:59.081Z,174.38
2019-01-23T10:02:59.059Z,157.50
2019-01-23T10:03:59.022Z,146.25
2019-01-23T10:04:59.085Z,140.63
2019-01-23T10:05:58.994Z,140.63
2019-01-23T10:06:59.102Z,140.63
2019-01-23T10:07:58.914Z,140.63
2019-01-23T10:08:58.873Z,140.63
2019-01-23T10:09:58.912Z,135.00
2019-01-23T10:10:58.817Z,135.00
2019-01-23T10:11:58.933Z,135.00
2019-01-23T10:12:58.743Z,135.00
2019-01-23T10:13:58.843Z,135.00
2019-01-23T10:14:58.683Z,135.00
2019-01-23T10:15:58.751Z,140.63
2019-01-23T10:16:58.621Z,146.25
2019-01-23T10:17:58.662Z,151.88
2019-01-23T10:18:58.565Z,151.88
2019-01-23T10:19:58.531Z,157.50
2019-01-23T10:20:58.494Z,163.13
2019-01-23T10:21:58.521Z,174.38
2019-01-23T10:22:58.433Z,180.00
2019-01-23T10:23:58.508Z,180.00
2019-01-23T10:24:58.385Z,185.63
2019-01-23T10:25:58.342Z,191.25
2019-01-23T10:26:58.422Z,191.25
2019-01-23T10:27:58.283Z,191.25
2019-01-23T10:28:58.332Z,191.25
2019-01-23T10:29:58.213Z,191.25
2019-01-23T10:30:58.180Z,191.25
2019-01-23T10:31:58.162Z,185.63
2019-01-23T10:32:58.261Z,191.25
2019-01-23T10:33:58.108Z,196.88
2019-01-23T10:34:58.172Z,202.50
2019-01-23T10:35:58.032Z,208.13
2019-01-23T10:36:58.004Z,208.13
2019-01-23T10:37:58.003Z,208.13
2019-01-23T10:38:57.944Z,208.13
2019-01-23T10:39:58.002Z,208.13
2019-01-23T10:40:57.871Z,230.63
2019-01-23T10:41:57.848Z,236.25
2019-01-23T10:42:57.823Z,241.88
2019-01-23T10:43:57.923Z,247.50
2019-01-23T10:44:57.743Z,264.38
2019-01-23T10:45:57.843Z,281.25
2019-01-23T10:46:57.683Z,309.38
2019-01-23T10:47:57.665Z,303.75
2019-01-23T10:48:57.752Z,275.63
2019-01-23T10:49:57.592Z,264.38
2019-01-23T10:50:57.678Z,258.75
2019-01-23T10:51:57.530Z,247.50
2019-01-23T10:52:57.516Z,230.63
2019-01-23T10:53:57.491Z,225.00
2019-01-23T10:54:57.592Z,225.00
2019-01-23T10:55:57.425Z,219.38
2019-01-23T10:56:57.504Z,208.13
2019-01-23T10:57:57.342Z,213.75
2019-01-23T10:58:57.311Z,208.13
2019-01-23T10:59:57.297Z,202.50
2019-01-23T11:00:58.995Z,196.88
2019-01-23T11:01:57.220Z,191.25
2019-01-23T11:02:57.341Z,185.63
2019-01-23T11:03:57.161Z,185.63
2019-01-23T11:04:57.868Z,180.00
2019-01-23T11:05:57.102Z,168.75
2019-01-23T11:06:57.277Z,163.13
2019-01-23T11:07:57.032Z,163.13
2019-01-23T11:08:57.180Z,163.13
2019-01-23T11:09:57.861Z,163.13
2019-01-23T11:10:57.103Z,163.13
2019-01-23T11:11:56.926Z,168.75
2019-01-23T11:12:57.019Z,168.75
2019-01-23T11:13:56.854Z,174.38
2019-01-23T11:14:56.823Z,174.38
2019-01-23T11:15:57.652Z,168.75
2019-01-23T11:16:56.835Z,168.75
2019-01-23T11:17:56.725Z,168.75
2019-01-23T11:18:56.740Z,180.00
2019-01-23T11:19:56.672Z,185.63
2019-01-23T11:20:56.631Z,191.25
2019-01-23T11:21:56.652Z,202.50
2019-01-23T11:22:56.582Z,225.00
2019-01-23T11:23:57.604Z,236.25
2019-01-23T11:24:56.513Z,225.00
2019-01-23T11:25:56.487Z,213.75
2019-01-23T11:26:56.451Z,213.75
2019-01-23T11:27:56.503Z,208.13
2019-01-23T11:28:56.405Z,208.13
2019-01-23T11:29:56.409Z,208.13
2019-01-23T11:30:56.324Z,202.50
2019-01-23T11:31:56.290Z,208.13
2019-01-23T11:32:57.612Z,208.13
2019-01-23T11:33:56.234Z,208.13
2019-01-23T11:34:56.243Z,208.13
2019-01-23T11:35:56.183Z,208.13
2019-01-23T11:36:56.141Z,202.50
2019-01-23T11:37:56.111Z,202.50
2019-01-23T11:38:56.171Z,191.25
2019-01-23T11:39:56.052Z,185.63
2019-01-23T11:40:56.082Z,174.38
2019-01-23T11:41:55.990Z,163.13
2019-01-23T11:42:55.973Z,157.50
2019-01-23T11:43:55.952Z,157.50
2019-01-23T11:44:56.024Z,157.50
2019-01-23T11:45:55.862Z,163.13
2019-01-23T11:46:55.921Z,168.75
2019-01-23T11:47:55.801Z,168.75
2019-01-23T11:48:55.830Z,168.75
2019-01-23T11:49:55.755Z,157.50
2019-01-23T11:50:55.745Z,151.88
2019-01-23T11:51:55.692Z,151.88
2019-01-23T11:52:55.755Z,140.63
2019-01-23T11:53:55.666Z,140.63
2019-01-23T11:54:55.589Z,140.63
2019-01-23T11:55:55.699Z,146.25
2019-01-23T11:56:55.531Z,151.88
2019-01-23T11:57:55.579Z,151.88
2019-01-23T11:58:55.472Z,174.38
2019-01-23T11:59:55.432Z,191.25
2019-01-23T12:00:55.501Z,196.88
2019-01-23T12:01:56.152Z,185.63
2019-01-23T12:02:55.427Z,163.13
2019-01-23T12:03:55.313Z,157.50
2019-01-23T12:04:55.295Z,157.50
2019-01-23T12:05:55.252Z,163.13
2019-01-23T12:06:55.241Z,174.38
2019-01-23T12:07:55.193Z,180.00
2019-01-23T12:08:55.254Z,180.00
2019-01-23T12:09:55.131Z,191.25
2019-01-23T12:10:55.121Z,191.25
2019-01-23T12:11:55.174Z,185.63
2019-01-23T12:12:55.045Z,180.00
2019-01-23T12:13:55.082Z,174.38
2019-01-23T12:14:54.971Z,174.38
2019-01-23T12:15:54.967Z,174.38
2019-01-23T12:16:54.911Z,174.38
2019-01-23T12:17:54.912Z,168.75
2019-01-23T12:18:54.860Z,174.38
2019-01-23T12:19:54.928Z,174.38
2019-01-23T12:20:54.802Z,168.75
2019-01-23T12:21:54.773Z,174.38
2019-01-23T12:22:54.746Z,180.00
2019-01-23T12:23:58.350Z,185.63
2019-01-23T12:24:54.672Z,185.63
2019-01-23T12:25:54.660Z,185.63
2019-01-23T12:26:54.623Z,185.63
2019-01-23T12:27:54.670Z,191.25
2019-01-23T12:28:54.550Z,191.25
2019-01-23T12:29:54.586Z,185.63
2019-01-23T12:30:54.491Z,180.00
2019-01-23T12:31:54.505Z,180.00
2019-01-23T12:32:54.473Z,185.63
2019-01-23T12:33:54.513Z,185.63
2019-01-23T12:34:54.364Z,185.63
2019-01-23T12:35:54.422Z,180.00
2019-01-23T12:36:54.313Z,174.38
2019-01-23T12:37:54.344Z,168.75
2019-01-23T12:38:54.253Z,168.75
2019-01-23T12:39:54.242Z,163.13
2019-01-23T12:40:54.205Z,157.50
2019-01-23T12:41:54.266Z,157.50
2019-01-23T12:42:54.120Z,157.50
2019-01-23T12:43:54.092Z,151.88
2019-01-23T12:44:54.060Z,151.88
2019-01-23T12:45:55.512Z,146.25
2019-01-23T12:46:54.001Z,146.25
2019-01-23T12:47:53.995Z,146.25
2019-01-23T12:48:53.945Z,146.25
2019-01-23T12:49:53.911Z,151.88
2019-01-23T12:50:53.916Z,146.25
2019-01-23T12:51:53.849Z,146.25
2019-01-23T12:52:53.929Z,146.25
2019-01-23T12:53:53.792Z,140.63
2019-01-23T12:54:53.764Z,135.00
2019-01-23T12:55:53.732Z,135.00
2019-01-23T12:56:53.766Z,123.75
2019-01-23T12:57:53.683Z,118.13
2019-01-23T12:58:53.672Z,118.13
2019-01-23T12:59:53.602Z,118.13
2019-01-23T13:00:53.577Z,118.13
2019-01-23T13:01:53.583Z,123.75
2019-01-23T13:02:53.513Z,123.75
2019-01-23T13:03:53.592Z,129.38
2019-01-23T13:04:53.463Z,129.38
2019-01-23T13:05:53.423Z,129.38
2019-01-23T13:06:53.393Z,135.00
2019-01-23T13:07:53.424Z,135.00
2019-01-23T13:08:53.331Z,135.00
2019-01-23T13:09:53.331Z,140.63
2019-01-23T13:10:53.275Z,135.00
2019-01-23T13:11:53.342Z,129.38
2019-01-23T13:12:53.427Z,123.75
2019-01-23T13:13:53.263Z,123.75
2019-01-23T13:14:53.153Z,123.75
2019-01-23T13:15:53.173Z,123.75
2019-01-23T13:16:53.092Z,123.75
2019-01-23T13:17:53.083Z,123.75
2019-01-23T13:18:53.044Z,123.75
2019-01-23T13:19:53.094Z,123.75
2019-01-23T13:20:52.970Z,123.75
2019-01-23T13:21:52.931Z,129.38
2019-01-23T13:22:52.902Z,123.75
2019-01-23T13:23:53.241Z,118.13
2019-01-23T13:24:52.842Z,112.50
2019-01-23T13:25:52.829Z,106.88
2019-01-23T13:26:52.790Z,101.25
2019-01-23T13:27:52.752Z,95.63
2019-01-23T13:28:52.719Z,90.00
2019-01-23T13:29:52.751Z,90.00
2019-01-23T13:30:52.661Z,90.00
2019-01-23T13:31:52.660Z,84.38
2019-01-23T13:32:52.601Z,84.38
2019-01-23T13:33:52.583Z,78.75
2019-01-23T13:34:52.531Z,78.75
2019-01-23T13:35:52.591Z,78.75
2019-01-23T13:36:52.482Z,73.13
2019-01-23T13:37:52.500Z,73.13
2019-01-23T13:38:52.522Z,73.13
2019-01-23T13:39:52.385Z,73.13
2019-01-23T13:40:52.422Z,73.13
2019-01-23T13:41:52.323Z,67.50
2019-01-23T13:42:52.334Z,67.50
2019-01-23T13:43:52.262Z,67.50
2019-01-23T13:44:52.243Z,67.50
2019-01-23T13:45:52.203Z,61.88
2019-01-23T13:46:52.273Z,61.88
2019-01-23T13:47:52.139Z,61.88
2019-01-23T13:48:52.171Z,61.88
2019-01-23T13:49:52.184Z,61.88
2019-01-23T13:50:52.063Z,61.88
2019-01-23T13:51:52.089Z,61.88
2019-01-23T13:52:51.995Z,67.50
2019-01-23T13:53:52.018Z,67.50
2019-01-23T13:54:51.924Z,61.88
2019-01-23T13:55:51.904Z,61.88
2019-01-23T13:56:51.920Z,61.88
2019-01-23T13:57:51.829Z,61.88
2019-01-23T13:58:51.833Z,61.88
2019-01-23T13:59:51.770Z,61.88
2019-01-23T14:00:51.740Z,61.88
2019-01-23T14:01:56.213Z,56.25
2019-01-23T14:02:51.760Z,56.25
2019-01-23T14:03:51.652Z,56.25
2019-01-23T14:04:51.673Z,56.25
2019-01-23T14:05:51.578Z,56.25
2019-01-23T14:06:51.602Z,56.25
2019-01-23T14:07:51.591Z,50.63
2019-01-23T14:08:51.498Z,50.63
2019-01-23T14:09:51.504Z,50.63
2019-01-23T14:10:51.433Z,50.63
2019-01-23T14:11:51.401Z,45.00
2019-01-23T14:12:51.373Z,45.00
2019-01-23T14:13:51.432Z,45.00
2019-01-23T14:14:51.310Z,45.00
2019-01-23T14:15:51.363Z,45.00
2019-01-23T14:16:51.250Z,45.00
2019-01-23T14:17:51.222Z,45.00
2019-01-23T14:18:51.265Z,45.00
2019-01-23T14:19:51.153Z,39.38
2019-01-23T14:20:51.271Z,39.38
2019-01-23T14:21:51.091Z,39.38
2019-01-23T14:22:51.061Z,33.75
2019-01-23T14:23:51.032Z,33.75
2019-01-23T14:24:51.101Z,33.75
2019-01-23T14:25:50.971Z,33.75
2019-01-23T14:26:51.111Z,33.75
2019-01-23T14:27:50.911Z,28.13
2019-01-23T14:28:50.881Z,28.13
2019-01-23T14:29:50.854Z,28.13
2019-01-23T14:30:50.930Z,28.13
2019-01-23T14:31:50.781Z,28.13
2019-01-23T14:32:50.852Z,28.13
2019-01-23T14:33:50.723Z,28.13
2019-01-23T14:34:50.760Z,28.13
2019-01-23T14:35:50.663Z,28.13
2019-01-23T14:36:50.699Z,28.13
2019-01-23T14:37:50.603Z,28.13
2019-01-23T14:38:50.691Z,28.13
2019-01-23T14:39:50.540Z,28.13
2019-01-23T14:40:57.853Z,28.13
2019-01-23T14:42:54.584Z,28.13
2019-01-23T14:43:54.483Z,22.50
2019-01-23T14:45:58.492Z,22.50
2019-01-23T14:46:58.392Z,22.50
2019-01-23T14:49:02.421Z,22.50
2019-01-23T14:50:02.303Z,22.50
2019-01-23T14:52:06.310Z,22.50
2019-01-23T14:53:06.211Z,22.50
2019-01-23T14:55:10.221Z,22.50
2019-01-23T14:56:10.113Z,22.50
2019-01-23T14:58:14.143Z,16.88
2019-01-23T14:59:14.030Z,16.88
2019-01-23T15:01:06.956Z,16.88
2019-01-23T15:02:10.301Z,16.88
2019-01-23T15:04:10.833Z,16.88
2019-01-23T15:05:10.803Z,16.88
2019-01-23T15:07:14.804Z,11.25
2019-01-23T15:08:14.716Z,11.25
2019-01-23T15:10:18.712Z,11.25
2019-01-23T15:11:18.611Z,11.25
2019-01-23T15:12:18.586Z,11.25
2019-01-23T15:13:18.590Z,11.25
2019-01-23T15:14:18.513Z,11.25
2019-01-23T15:15:18.513Z,11.25
2019-01-23T15:16:18.453Z,11.25
2019-01-23T15:17:18.437Z,11.25